createdAt,value
2018-09-05T00:04:03.501Z,25.40
2018-09-05T00:09:25.810Z,25.10
2018-09-05T00:14:47.678Z,25.43
2018-09-05T00:20:09.794Z,25.50
2018-09-05T00:25:31.741Z,26.07
2018-09-05T00:30:53.978Z,22.50
2018-09-05T00:36:16.570Z,20.73
2018-09-05T00:41:38.306Z,21.37
2018-09-05T00:47:00.300Z,20.73
2018-09-05T00:52:22.653Z,19.10
2018-09-05T00:57:44.474Z,19.40
2018-09-05T01:03:06.569Z,19.50
2018-09-05T01:08:28.310Z,18.83
2018-09-05T01:13:50.325Z,19.07
2018-09-05T01:19:11.968Z,19.83
2018-09-05T01:24:34.001Z,18.87
2018-09-05T01:29:56.339Z,19.63
2018-09-05T01:35:18.313Z,19.47
2018-09-05T01:40:40.627Z,18.13
2018-09-05T01:46:02.690Z,18.23
2018-09-05T01:51:24.496Z,20.67
2018-09-05T01:56:46.574Z,21.23
2018-09-05T02:02:09.592Z,21.27
2018-09-05T02:07:31.951Z,20.77
2018-09-05T02:12:54.396Z,21.73
2018-09-05T02:18:16.243Z,20.30
2018-09-05T02:23:38.390Z,22.13
2018-09-05T02:29:00.227Z,22.50
2018-09-05T02:34:22.286Z,20.87
2018-09-05T02:39:44.545Z,21.57
2018-09-05T02:45:06.630Z,21.50
2018-09-05T02:50:28.597Z,21.23
2018-09-05T02:55:55.052Z,21.87
2018-09-05T03:01:16.992Z,21.23
2018-09-05T03:06:38.803Z,20.27
2018-09-05T03:12:00.830Z,20.57
2018-09-05T03:17:23.086Z,17.23
2018-09-05T03:22:45.066Z,24.47
2018-09-05T03:28:07.442Z,21.77
2018-09-05T03:33:29.716Z,20.03
2018-09-05T03:38:51.675Z,17.33
2018-09-05T03:44:13.803Z,19.90
2018-09-05T03:49:36.477Z,19.57
2018-09-05T03:54:58.778Z,19.20
2018-09-05T04:00:20.618Z,17.73
2018-09-05T04:05:42.701Z,13.43
2018-09-05T04:11:04.486Z,15.73
2018-09-05T04:16:26.590Z,13.83
2018-09-05T04:21:48.334Z,15.77
2018-09-05T04:27:10.147Z,14.40
2018-09-05T04:32:32.475Z,11.90
2018-09-05T04:37:54.302Z,13.07
2018-09-05T04:43:16.375Z,17.93
2018-09-05T04:48:38.178Z,13.97
2018-09-05T04:54:00.398Z,14.57
2018-09-05T04:59:22.722Z,16.73
2018-09-05T05:04:44.650Z,16.50
2018-09-05T05:10:06.748Z,15.80
2018-09-05T05:15:28.515Z,16.97
2018-09-05T05:20:50.628Z,15.03
2018-09-05T05:26:13.262Z,18.20
2018-09-05T05:31:35.661Z,16.13
2018-09-05T05:36:57.438Z,21.60
2018-09-05T05:42:19.700Z,21.53
2018-09-05T05:47:42.142Z,24.67
2018-09-05T05:53:04.086Z,29.10
2018-09-05T05:58:26.833Z,17.70
2018-09-05T06:03:48.848Z,19.63
2018-09-05T06:09:12.588Z,16.70
2018-09-05T06:14:34.636Z,14.13
2018-09-05T06:19:57.038Z,15.60
2018-09-05T06:25:20.295Z,15.87
2018-09-05T06:30:42.636Z,15.33
2018-09-05T06:36:04.819Z,25.77
2018-09-05T06:41:26.632Z,19.27
2018-09-05T06:46:48.914Z,19.23
2018-09-05T06:52:11.118Z,17.07
2018-09-05T06:57:33.267Z,15.03
2018-09-05T07:02:56.236Z,14.57
2018-09-05T07:08:17.979Z,14.03
2018-09-05T07:13:40.202Z,16.20
2018-09-05T07:19:02.259Z,18.47
2018-09-05T07:24:24.296Z,18.27
2018-09-05T07:29:49.902Z,17.70
2018-09-05T07:35:11.818Z,26.63
2018-09-05T07:40:33.848Z,23.37
2018-09-05T07:45:55.983Z,26.80
2018-09-05T07:51:18.375Z,26.73
2018-09-05T07:56:40.377Z,28.23
2018-09-05T08:02:02.548Z,28.10
2018-09-05T08:07:24.346Z,26.40
2018-09-05T08:12:46.450Z,29.37
2018-09-05T08:18:08.256Z,28.17
2018-09-05T08:23:30.630Z,26.43
2018-09-05T08:28:52.705Z,27.67
2018-09-05T08:34:14.597Z,27.37
2018-09-05T08:39:36.737Z,28.93
2018-09-05T08:44:58.655Z,27.53
2018-09-05T08:50:20.694Z,25.00
2018-09-05T08:55:42.972Z,25.20
2018-09-05T09:01:04.954Z,28.03
2018-09-05T09:06:27.097Z,25.43
2018-09-05T09:11:49.023Z,23.93
2018-09-05T09:17:10.942Z,25.57
2018-09-05T09:22:33.132Z,23.23
2018-09-05T09:27:55.126Z,22.80
2018-09-05T09:33:17.150Z,21.40
2018-09-05T09:38:38.955Z,15.47
2018-09-05T09:44:01.258Z,15.53
2018-09-05T09:49:23.373Z,14.83
2018-09-05T09:54:45.188Z,13.57
2018-09-05T10:00:07.515Z,11.03
2018-09-05T10:05:34.949Z,11.80
2018-09-05T10:11:06.424Z,11.20
2018-09-05T10:16:33.338Z,11.17
2018-09-05T10:21:55.831Z,10.50
2018-09-05T10:27:17.939Z,9.10
2018-09-05T10:32:43.619Z,10.40
2018-09-05T10:38:05.760Z,11.33
2018-09-05T10:43:28.965Z,10.27
2018-09-05T10:48:51.287Z,9.60
2018-09-05T10:54:13.691Z,8.27
2018-09-05T10:59:35.626Z,9.17
2018-09-05T11:04:58.918Z,10.80
2018-09-05T11:10:21.050Z,10.67
2018-09-05T11:15:44.377Z,10.37
2018-09-05T11:21:07.377Z,11.43
2018-09-05T11:26:29.262Z,11.07
2018-09-05T11:31:51.417Z,10.60
2018-09-05T11:37:16.769Z,9.23
2018-09-05T11:42:38.830Z,9.10
2018-09-05T11:48:13.031Z,8.17
2018-09-05T11:53:48.864Z,8.60
2018-09-05T11:59:20.111Z,8.27
2018-09-05T12:04:55.739Z,8.93
2018-09-05T12:10:29.419Z,9.20
2018-09-05T12:15:51.565Z,7.10
2018-09-05T12:21:14.832Z,8.33
2018-09-05T12:26:36.885Z,9.17
2018-09-05T12:31:58.690Z,5.77
2018-09-05T12:37:20.657Z,9.73
2018-09-05T12:42:42.957Z,7.47
2018-09-05T12:48:04.918Z,6.80
2018-09-05T12:53:27.024Z,6.30
2018-09-05T12:58:49.598Z,6.20
2018-09-05T13:04:11.745Z,8.03
2018-09-05T13:09:33.757Z,8.13
2018-09-05T13:14:56.673Z,7.77
2018-09-05T13:20:18.934Z,8.13
2018-09-05T13:25:41.211Z,8.70
2018-09-05T13:31:06.985Z,7.63
2018-09-05T13:36:33.585Z,8.50
2018-09-05T13:41:57.240Z,7.00
2018-09-05T13:47:19.732Z,7.60
2018-09-05T13:52:41.466Z,8.67
2018-09-05T13:58:05.347Z,7.77
2018-09-05T14:03:28.851Z,7.03
2018-09-05T14:08:50.605Z,7.83
2018-09-05T14:14:13.051Z,9.07
2018-09-05T14:19:36.289Z,10.13
2018-09-05T14:24:59.552Z,8.33
2018-09-05T14:30:21.484Z,7.47
2018-09-05T14:35:43.454Z,7.20
2018-09-05T14:41:05.087Z,8.23
2018-09-05T14:46:27.366Z,7.70
2018-09-05T14:51:51.410Z,6.53
2018-09-05T14:57:13.609Z,6.93
2018-09-05T15:02:35.474Z,8.13
2018-09-05T15:07:57.896Z,7.23
2018-09-05T15:13:20.078Z,10.10
2018-09-05T15:18:41.973Z,6.87
2018-09-05T15:24:04.138Z,9.17
2018-09-05T15:29:26.663Z,9.20
2018-09-05T15:34:49.700Z,7.80
2018-09-05T15:40:11.930Z,8.57
2018-09-05T15:45:33.691Z,9.43
2018-09-05T15:50:55.731Z,7.67
2018-09-05T15:56:17.510Z,7.93
2018-09-05T16:01:39.674Z,12.60
2018-09-05T16:07:01.501Z,7.43
2018-09-05T16:12:23.610Z,6.70
2018-09-05T16:17:46.761Z,7.40
2018-09-05T16:23:08.833Z,9.10
2018-09-05T16:28:31.193Z,9.87
2018-09-05T16:33:52.987Z,9.17
2018-09-05T16:39:15.060Z,9.70
2018-09-05T16:44:37.645Z,8.83
2018-09-05T16:49:59.280Z,8.50
2018-09-05T16:55:21.295Z,8.63
2018-09-05T17:00:43.138Z,10.83
2018-09-05T17:06:05.212Z,8.40
2018-09-05T17:11:27.566Z,8.53
2018-09-05T17:16:49.578Z,9.10
2018-09-05T17:22:11.631Z,9.80
2018-09-05T17:27:34.145Z,7.23
2018-09-05T17:32:56.511Z,7.40
2018-09-05T17:38:18.872Z,8.03
2018-09-05T17:43:41.041Z,6.90
2018-09-05T17:49:03.254Z,5.80
2018-09-05T17:54:27.034Z,5.30
2018-09-05T17:59:49.085Z,6.83
2018-09-05T18:05:11.190Z,5.50
2018-09-05T18:10:33.090Z,5.70
2018-09-05T18:15:55.124Z,5.20
2018-09-05T18:21:17.217Z,7.53
2018-09-05T18:26:39.239Z,4.83
2018-09-05T18:32:01.476Z,5.70
2018-09-05T18:37:23.290Z,5.17
2018-09-05T18:42:45.330Z,5.07
2018-09-05T18:48:07.903Z,4.50
2018-09-05T18:53:29.656Z,5.80
2018-09-05T18:58:51.976Z,4.03
2018-09-05T19:04:14.299Z,6.73
2018-09-05T19:09:36.272Z,4.20
2018-09-05T19:14:58.881Z,3.60
2018-09-05T19:20:21.077Z,7.27
2018-09-05T19:25:43.226Z,4.13
2018-09-05T19:31:04.893Z,5.13
2018-09-05T19:36:27.066Z,5.23
2018-09-05T19:41:48.886Z,4.83
2018-09-05T19:47:11.273Z,6.30
2018-09-05T19:52:33.530Z,6.63
2018-09-05T19:57:55.529Z,6.80
2018-09-05T20:03:17.707Z,7.23
2018-09-05T20:08:40.082Z,9.87
2018-09-05T20:14:02.422Z,10.87
2018-09-05T20:19:24.246Z,13.50
2018-09-05T20:24:46.602Z,11.43
2018-09-05T20:30:08.278Z,9.13
2018-09-05T20:35:30.240Z,7.90
2018-09-05T20:40:52.457Z,9.00
2018-09-05T20:46:14.389Z,7.73
2018-09-05T20:51:36.514Z,7.87
2018-09-05T20:56:58.794Z,8.10
2018-09-05T21:02:20.956Z,10.03
2018-09-05T21:07:43.020Z,11.23
2018-09-05T21:13:04.810Z,11.37
2018-09-05T21:18:30.020Z,10.87
2018-09-05T21:23:52.385Z,12.70
2018-09-05T21:29:15.355Z,13.10
2018-09-05T21:34:37.698Z,11.17
2018-09-05T21:39:59.469Z,14.13
2018-09-05T21:45:21.663Z,14.70
2018-09-05T21:50:45.179Z,11.50
2018-09-05T21:56:07.190Z,13.23
2018-09-05T22:01:29.310Z,10.23
2018-09-05T22:06:51.486Z,14.30
2018-09-05T22:12:13.447Z,13.27
2018-09-05T22:17:35.551Z,17.07
2018-09-05T22:22:58.489Z,17.27
2018-09-05T22:28:20.150Z,18.17
2018-09-05T22:33:42.196Z,18.67
2018-09-05T22:39:04.478Z,17.63
2018-09-05T22:44:36.571Z,15.43
2018-09-05T22:52:18.778Z,16.03
2018-09-05T22:59:58.287Z,16.20
2018-09-05T23:05:31.478Z,13.83
2018-09-05T23:11:03.526Z,13.73
2018-09-05T23:16:35.643Z,12.33
2018-09-05T23:21:57.782Z,13.10
2018-09-05T23:27:19.719Z,13.07
2018-09-05T23:32:41.780Z,11.87
2018-09-05T23:38:03.674Z,11.13
2018-09-05T23:43:25.804Z,10.30
2018-09-05T23:48:47.465Z,11.50
2018-09-05T23:54:09.431Z,13.63
2018-09-05T23:59:32.605Z,10.27
